Time;durP1;ratioP1;P1;durP2;ratioP2;P2;SDS_P1;SDS_P2;PMS_P1;PMS_P2;Temp;Humidity;BMP_temperature;BMP_pressure;BME280_temperature;BME280_humidity;BME280_pressure;Samples;Min_cycle;Max_cycle;Signal;HPM_P1;HPM_P2
2022/12/03 00:00:07;;;;;;;0.20;0.20;;;;;;;1.25;100.00;102312.13;4974506;28;20030;-76
2022/12/03 00:02:32;;;;;;;0.15;0.15;;;;;;;1.27;100.00;102315.63;4973920;28;20503;-76
2022/12/03 00:04:58;;;;;;;0.20;0.20;;;;;;;1.05;100.00;102276.28;4988718;28;20037;-76
2022/12/03 00:07:24;;;;;;;0.20;0.20;;;;;;;1.28;100.00;102301.50;4979619;28;20427;-77
2022/12/03 00:09:49;;;;;;;0.20;0.20;;;;;;;1.30;100.00;102308.56;4993959;28;20029;-76
2022/12/03 00:12:14;;;;;;;0.20;0.20;;;;;;;1.41;100.00;102304.84;4996916;28;20037;-76
2022/12/03 00:14:40;;;;;;;0.20;0.20;;;;;;;1.25;100.00;102278.63;4981529;28;20030;-76
2022/12/03 00:17:05;;;;;;;0.20;0.20;;;;;;;1.44;100.00;102307.44;4985226;28;20060;-76
2022/12/03 00:19:30;;;;;;;0.20;0.20;;;;;;;1.35;100.00;102296.09;5000275;28;20036;-75
2022/12/03 00:21:56;;;;;;;0.20;0.20;;;;;;;1.12;100.00;102279.69;5002296;28;20113;-76
2022/12/03 00:24:21;;;;;;;0.15;0.15;;;;;;;1.25;100.00;102285.69;4981858;28;20026;-76
2022/12/03 00:26:46;;;;;;;0.20;0.20;;;;;;;1.46;100.00;102297.72;5006878;28;20030;-76
2022/12/03 00:29:12;;;;;;;0.20;0.20;;;;;;;1.37;100.00;102292.56;4978389;28;20034;-76
2022/12/03 00:31:37;;;;;;;0.20;0.20;;;;;;;1.40;100.00;102301.34;4980949;28;20503;-76
2022/12/03 00:34:02;;;;;;;0.20;0.20;;;;;;;1.28;100.00;102283.88;4977670;28;20392;-77
2022/12/03 00:36:28;;;;;;;0.20;0.20;;;;;;;1.34;100.00;102278.47;4979498;28;20065;-76
2022/12/03 00:38:53;;;;;;;0.20;0.20;;;;;;;1.42;100.00;102293.34;4979796;28;20115;-76
2022/12/03 00:41:18;;;;;;;0.20;0.20;;;;;;;1.38;100.00;102274.03;4977429;28;20073;-76
2022/12/03 00:43:43;;;;;;;0.20;0.20;;;;;;;1.31;100.00;102272.38;4992265;28;20038;-76
2022/12/03 00:46:09;;;;;;;0.20;0.20;;;;;;;1.31;100.00;102278.53;4974824;28;20053;-76
2022/12/03 00:48:34;;;;;;;0.20;0.20;;;;;;;1.33;100.00;102295.25;4989509;28;20117;-75
2022/12/03 00:50:59;;;;;;;0.20;0.20;;;;;;;1.37;100.00;102282.84;4993785;28;20109;-75
2022/12/03 00:53:25;;;;;;;0.20;0.20;;;;;;;1.27;100.00;102257.44;4978349;28;20057;-76
2022/12/03 00:55:50;;;;;;;0.20;0.20;;;;;;;1.37;100.00;102279.31;5002057;28;20045;-76
2022/12/03 00:58:16;;;;;;;0.30;0.30;;;;;;;1.43;100.00;102282.75;4997433;28;20503;-76
2022/12/03 01:00:41;;;;;;;0.20;0.20;;;;;;;1.35;100.00;102274.06;5000000;28;20038;-76
2022/12/03 01:03:07;;;;;;;0.20;0.20;;;;;;;1.45;100.00;102286.25;4997293;28;20033;-76
2022/12/03 01:05:32;;;;;;;0.20;0.20;;;;;;;1.39;100.00;102289.00;4977436;28;20014;-75
2022/12/03 01:07:57;;;;;;;0.20;0.20;;;;;;;1.24;100.00;102271.59;4987424;28;20112;-76
2022/12/03 01:10:23;;;;;;;0.20;0.20;;;;;;;1.47;100.00;102291.50;5000352;28;20117;-76
2022/12/03 01:12:48;;;;;;;0.10;0.10;;;;;;;1.43;100.00;102287.16;4994328;28;20039;-76
2022/12/03 01:15:13;;;;;;;0.20;0.20;;;;;;;1.49;100.00;102276.50;4966234;28;20046;-76
2022/12/03 01:17:39;;;;;;;0.20;0.20;;;;;;;1.32;100.00;102264.41;4979565;28;20038;-76
2022/12/03 01:20:05;;;;;;;0.20;0.20;;;;;;;1.43;100.00;102289.81;4957095;28;20034;-76
2022/12/03 01:22:31;;;;;;;0.20;0.20;;;;;;;1.41;100.00;102254.56;4970222;28;20042;-76
2022/12/03 01:24:56;;;;;;;0.30;0.30;;;;;;;1.43;100.00;102268.63;4970417;28;20516;-76
2022/12/03 01:27:21;;;;;;;0.20;0.20;;;;;;;1.49;100.00;102261.47;4961190;28;20026;-76
2022/12/03 01:29:47;;;;;;;0.20;0.20;;;;;;;1.48;100.00;102290.63;4972954;28;20380;-76
2022/12/03 01:32:18;;;;;;;0.20;0.20;;;;;;;1.29;100.00;102250.34;4960483;28;20500;-76
2022/12/03 01:34:53;;;;;;;0.20;0.20;;;;;;;1.19;100.00;102247.81;4966110;28;20041;-76
2022/12/03 01:37:21;;;;;;;0.13;0.13;;;;;;;1.43;100.00;102290.72;4976578;28;20038;-76
2022/12/03 01:39:46;;;;;;;0.20;0.20;;;;;;;1.36;100.00;102273.16;4982386;28;20032;-76
2022/12/03 01:42:26;;;;;;;0.20;0.20;;;;;;;1.27;100.00;102268.00;4980204;28;20030;-77
2022/12/03 01:44:52;;;;;;;0.20;0.20;;;;;;;1.41;100.00;102278.38;4985185;28;20084;-76
2022/12/03 01:47:19;;;;;;;0.20;0.20;;;;;;;1.45;100.00;102278.31;4981234;28;20023;-75
2022/12/03 01:50:02;;;;;;;0.20;0.20;;;;;;;1.29;100.00;102258.28;4979446;28;20038;-76
2022/12/03 01:52:30;;;;;;;0.20;0.20;;;;;;;1.44;100.00;102273.03;4962461;28;20116;-76
2022/12/03 01:54:58;;;;;;;0.20;0.20;;;;;;;1.44;100.00;102276.56;4977016;28;20459;-76
2022/12/03 01:57:38;;;;;;;0.20;0.20;;;;;;;1.33;100.00;102276.72;4981668;28;20044;-76
2022/12/03 02:00:05;;;;;;;0.20;0.20;;;;;;;1.49;100.00;102277.34;4983207;28;20495;-77
2022/12/03 02:02:31;;;;;;;0.20;0.20;;;;;;;1.42;100.00;102277.47;4985554;28;20029;-76
2022/12/03 02:04:56;;;;;;;0.20;0.20;;;;;;;1.45;100.00;102243.03;4967891;28;20022;-76
2022/12/03 02:07:32;;;;;;;0.20;0.20;;;;;;;1.45;100.00;102278.31;4979609;28;20073;-77
2022/12/03 02:10:00;;;;;;;0.20;0.20;;;;;;;1.41;100.00;102255.44;4978273;28;20040;-75
2022/12/03 02:12:35;;;;;;;0.20;0.20;;;;;;;1.53;100.00;102280.84;4995193;28;20202;-75
2022/12/03 02:15:02;;;;;;;0.20;0.20;;;;;;;1.29;100.00;102253.88;4973577;28;20061;-76
2022/12/03 02:17:28;;;;;;;0.20;0.20;;;;;;;1.33;100.00;102265.28;4972242;28;20095;-76
2022/12/03 02:19:53;;;;;;;0.20;0.20;;;;;;;1.30;100.00;102262.66;4997588;28;20474;-75
2022/12/03 02:22:30;;;;;;;0.20;0.20;;;;;;;1.45;100.00;102275.69;4980344;28;20124;-76
2022/12/03 02:25:17;;;;;;;0.20;0.20;;;;;;;1.55;100.00;102272.84;4971281;28;20144;-76
2022/12/03 02:27:43;;;;;;;0.20;0.20;;;;;;;1.30;100.00;102238.84;4995495;28;20544;-76
2022/12/03 02:30:11;;;;;;;0.20;0.20;;;;;;;1.28;100.00;102251.25;4980534;28;20036;-76
2022/12/03 02:32:37;;;;;;;0.20;0.20;;;;;;;1.32;100.00;102260.88;4976380;28;20121;-76
2022/12/03 02:35:02;;;;;;;0.20;0.20;;;;;;;1.38;100.00;102268.72;4981618;28;20091;-76
2022/12/03 02:37:33;;;;;;;0.20;0.20;;;;;;;1.47;100.00;102267.69;4979536;28;20041;-76
2022/12/03 02:40:02;;;;;;;0.20;0.20;;;;;;;1.37;100.00;102266.09;4977370;28;20034;-75
2022/12/03 02:42:34;;;;;;;0.17;0.17;;;;;;;1.19;100.00;102237.25;4977730;28;20064;-76
2022/12/03 02:45:02;;;;;;;0.20;0.20;;;;;;;1.39;100.00;102253.72;4970437;28;20065;-76
2022/12/03 02:47:29;;;;;;;0.20;0.20;;;;;;;1.38;100.00;102255.50;4982695;28;20034;-76
2022/12/03 02:49:54;;;;;;;0.20;0.20;;;;;;;1.25;100.00;102227.47;4979589;28;20030;-77
2022/12/03 02:52:20;;;;;;;0.20;0.20;;;;;;;1.34;100.00;102236.13;4975378;28;20382;-75
2022/12/03 02:54:46;;;;;;;0.20;0.20;;;;;;;1.32;100.00;102240.59;5002594;28;20033;-76
2022/12/03 02:57:11;;;;;;;0.20;0.20;;;;;;;1.41;100.00;102250.16;4980249;28;20036;-76
2022/12/03 02:59:37;;;;;;;0.20;0.20;;;;;;;1.28;100.00;102240.66;4975677;28;20026;-76
2022/12/03 03:02:02;;;;;;;0.20;0.20;;;;;;;1.33;100.00;102236.16;4961709;28;20618;-76
2022/12/03 03:04:28;;;;;;;0.20;0.20;;;;;;;1.42;100.00;102230.72;4994181;28;20113;-76
2022/12/03 03:06:53;;;;;;;0.20;0.20;;;;;;;1.37;100.00;102240.50;4974754;28;20567;-76
2022/12/03 03:09:19;;;;;;;0.20;0.20;;;;;;;1.45;100.00;102257.16;4964737;28;20033;-76
2022/12/03 03:11:44;;;;;;;0.13;0.13;;;;;;;1.49;100.00;102255.31;4976702;28;20503;-76
2022/12/03 03:14:10;;;;;;;0.20;0.20;;;;;;;1.41;100.00;102252.81;4975587;28;20077;-76
2022/12/03 03:16:35;;;;;;;0.20;0.20;;;;;;;1.20;100.00;102214.31;4977270;28;20030;-76
2022/12/03 03:19:01;;;;;;;0.20;0.20;;;;;;;1.29;100.00;102232.72;4993971;28;20091;-75
2022/12/03 03:21:26;;;;;;;0.20;0.20;;;;;;;1.37;100.00;102240.50;4974012;28;20048;-76
2022/12/03 03:23:52;;;;;;;0.20;0.20;;;;;;;1.51;100.00;102248.22;4963165;28;20030;-76
2022/12/03 03:26:17;;;;;;;0.20;0.20;;;;;;;1.19;100.00;102218.72;4976988;28;20512;-75
2022/12/03 03:28:45;;;;;;;0.20;0.20;;;;;;;1.49;100.00;102252.66;4972232;28;21758;-75
2022/12/03 03:31:13;;;;;;;0.20;0.20;;;;;;;1.48;100.00;102242.97;4975150;28;20192;-75
2022/12/03 03:33:39;;;;;;;0.20;0.20;;;;;;;1.49;100.00;102245.56;4978082;28;20036;-76
2022/12/03 03:36:05;;;;;;;0.20;0.20;;;;;;;1.34;100.00;102228.19;4963353;28;20038;-75
2022/12/03 03:38:31;;;;;;;0.20;0.20;;;;;;;1.53;100.00;102232.28;4961476;28;20037;-76
2022/12/03 03:40:58;;;;;;;0.20;0.20;;;;;;;1.37;100.00;102226.38;4974260;28;20396;-75
2022/12/03 03:43:23;;;;;;;0.20;0.20;;;;;;;1.26;100.00;102218.63;4969953;28;20037;-75
2022/12/03 03:45:50;;;;;;;0.20;0.20;;;;;;;1.37;100.00;102235.22;4994436;28;20057;-75
2022/12/03 03:48:15;;;;;;;0.20;0.20;;;;;;;1.42;100.00;102229.84;4975693;28;20050;-75
2022/12/03 03:50:41;;;;;;;0.20;0.20;;;;;;;1.30;100.00;102212.41;4991621;28;20034;-75
2022/12/03 03:53:07;;;;;;;0.20;0.20;;;;;;;1.38;100.00;102209.59;4974409;28;20030;-76
2022/12/03 03:55:32;;;;;;;0.20;0.20;;;;;;;1.47;100.00;102220.06;4964334;28;20494;-75
2022/12/03 03:57:58;;;;;;;0.20;0.20;;;;;;;1.48;100.00;102213.84;4972089;28;20109;-75
2022/12/03 04:00:23;;;;;;;0.20;0.20;;;;;;;1.45;100.00;102220.09;4972552;28;20108;-76
2022/12/03 04:02:48;;;;;;;0.20;0.20;;;;;;;1.32;100.00;102202.66;4989883;28;20021;-76
2022/12/03 04:05:19;;;;;;;0.20;0.20;;;;;;;1.35;100.00;102216.69;4994908;28;20077;-75
2022/12/03 04:07:45;;;;;;;0.10;0.10;;;;;;;1.22;100.00;102193.13;4974298;28;20544;-75
2022/12/03 04:12:54;;;;;;;0.20;0.20;;;;;;;1.43;100.00;102226.28;4973026;28;20038;-75
2022/12/03 04:13:02;;;;;;;0.20;0.20;;;;;;;1.40;100.00;102221.03;4977402;28;20045;-75
2022/12/03 04:15:28;;;;;;;0.20;0.20;;;;;;;1.43;100.00;102223.66;4994549;28;20030;-75
2022/12/03 04:20:38;;;;;;;0.20;0.20;;;;;;;1.26;100.00;102200.09;4978194;28;20041;-75
2022/12/03 04:23:04;;;;;;;0.20;0.20;;;;;;;1.31;100.00;102193.88;4987740;28;20066;-76
2022/12/03 04:30:57;;;;;;;0.20;0.20;;;;;;;1.27;100.00;102212.44;4982962;28;20099;-75
2022/12/03 04:36:06;;;;;;;0.20;0.20;;;;;;;1.20;100.00;102195.81;4992472;28;20033;-75
2022/12/03 04:38:32;;;;;;;0.20;0.20;;;;;;;1.31;100.00;102220.31;4975788;28;20054;-76
2022/12/03 04:41:00;;;;;;;0.20;0.20;;;;;;;1.36;100.00;102217.59;4980320;28;20100;-75
2022/12/03 04:43:30;;;;;;;0.20;0.20;;;;;;;1.31;100.00;102220.31;4975257;28;20041;-76
2022/12/03 04:45:56;;;;;;;0.20;0.20;;;;;;;1.11;100.00;102201.25;4981865;28;20068;-76
2022/12/03 04:48:21;;;;;;;0.20;0.20;;;;;;;1.26;100.00;102214.22;4980028;28;20034;-75
2022/12/03 04:50:46;;;;;;;0.20;0.20;;;;;;;1.15;100.00;102201.19;4996624;28;20022;-76
2022/12/03 04:53:12;;;;;;;0.20;0.20;;;;;;;1.02;100.00;102183.75;4996851;28;20125;-75
2022/12/03 04:55:37;;;;;;;0.20;0.20;;;;;;;0.96;100.00;102175.91;4976431;28;20430;-75
2022/12/03 04:58:02;;;;;;;0.20;0.20;;;;;;;1.17;100.00;102196.75;4972833;28;21984;-75
2022/12/03 05:00:28;;;;;;;0.20;0.20;;;;;;;1.25;100.00;102220.41;4973281;28;20084;-76
2022/12/03 05:02:53;;;;;;;0.20;0.20;;;;;;;1.16;100.00;102212.63;4961112;28;20536;-76
2022/12/03 05:05:18;;;;;;;0.20;0.20;;;;;;;1.28;100.00;102211.53;4973957;28;20516;-75
2022/12/03 05:07:44;;;;;;;0.20;0.20;;;;;;;1.16;100.00;102175.59;4960773;28;20025;-76
2022/12/03 05:10:10;;;;;;;0.20;0.20;;;;;;;1.30;100.00;102209.75;4970513;28;20375;-76
2022/12/03 05:12:35;;;;;;;0.20;0.20;;;;;;;1.09;100.00;102185.41;4956620;28;20033;-75
2022/12/03 05:15:01;;;;;;;0.20;0.20;;;;;;;1.22;100.00;102207.25;4975941;28;20038;-76
2022/12/03 05:17:26;;;;;;;0.20;0.20;;;;;;;1.13;100.00;102196.78;4977982;28;20125;-76
2022/12/03 05:22:35;;;;;;;0.20;0.20;;;;;;;1.03;100.00;102178.44;4982090;28;20056;-75
2022/12/03 05:25:01;;;;;;;0.20;0.20;;;;;;;1.08;100.00;102174.81;4981570;28;20034;-75
2022/12/03 05:27:26;;;;;;;0.20;0.20;;;;;;;1.00;100.00;102174.97;4966361;28;20043;-75
2022/12/03 05:29:52;;;;;;;0.20;0.20;;;;;;;1.01;100.00;102180.25;4977792;28;20060;-76
2022/12/03 05:32:17;;;;;;;0.20;0.20;;;;;;;1.04;100.00;102174.91;4977255;28;20097;-75
2022/12/03 05:34:43;;;;;;;0.20;0.20;;;;;;;0.95;100.00;102150.34;5002420;28;20034;-75
2022/12/03 05:37:08;;;;;;;0.20;0.20;;;;;;;0.99;100.00;102157.34;4983431;28;20062;-75
2022/12/03 05:39:33;;;;;;;0.22;0.22;;;;;;;1.10;100.00;102171.28;4973970;28;20029;-75
2022/12/03 05:44:43;;;;;;;0.20;0.20;;;;;;;1.22;100.00;102188.72;4989103;28;20527;-75
2022/12/03 05:47:08;;;;;;;0.20;0.20;;;;;;;0.97;100.00;102146.81;4987797;28;20073;-76
2022/12/03 05:49:34;;;;;;;0.28;0.28;;;;;;;1.16;100.00;102175.59;4983138;28;20026;-76
2022/12/03 05:51:59;;;;;;;0.20;0.20;;;;;;;0.95;100.00;102153.00;4970079;28;20026;-76
2022/12/03 05:54:25;;;;;;;0.20;0.20;;;;;;;1.06;100.00;102188.09;4986324;28;20065;-76
2022/12/03 05:56:50;;;;;;;0.20;0.20;;;;;;;1.13;100.00;102189.75;5000109;28;20038;-76
2022/12/03 05:59:15;;;;;;;0.20;0.20;;;;;;;1.03;100.00;102159.94;4966633;28;20504;-76
2022/12/03 06:01:40;;;;;;;0.20;0.20;;;;;;;1.25;100.00;102195.72;4962845;28;20587;-76
2022/12/03 06:04:06;;;;;;;0.20;0.20;;;;;;;1.26;100.00;102189.53;4963449;28;20038;-76
2022/12/03 06:06:31;;;;;;;0.20;0.20;;;;;;;1.22;100.00;102193.13;4967243;28;20030;-76
2022/12/03 06:08:56;;;;;;;0.20;0.20;;;;;;;1.24;100.00;102186.03;4977967;28;20030;-76
2022/12/03 06:11:22;;;;;;;0.20;0.20;;;;;;;1.14;100.00;102164.16;4967371;28;20026;-75
2022/12/03 06:13:47;;;;;;;0.20;0.20;;;;;;;1.16;100.00;102170.28;4979277;28;20065;-75
2022/12/03 06:16:12;;;;;;;0.20;0.20;;;;;;;1.06;100.00;102152.84;4977716;28;20110;-75
2022/12/03 06:18:38;;;;;;;0.20;0.20;;;;;;;1.21;100.00;102184.31;4978639;28;20034;-76
2022/12/03 06:21:03;;;;;;;0.20;0.20;;;;;;;1.01;100.00;102147.63;4996682;28;20034;-76
2022/12/03 06:23:29;;;;;;;0.20;0.20;;;;;;;1.15;100.00;102163.25;4966146;28;20101;-76
2022/12/03 06:25:54;;;;;;;0.20;0.20;;;;;;;1.25;100.00;102185.13;4972374;28;20038;-76
2022/12/03 06:28:19;;;;;;;0.20;0.20;;;;;;;1.12;100.00;102158.91;4981134;28;20034;-75
2022/12/03 06:30:45;;;;;;;0.20;0.20;;;;;;;0.96;100.00;102150.34;4965853;28;20343;-75
2022/12/03 06:33:10;;;;;;;0.20;0.20;;;;;;;1.04;100.00;102158.16;4968291;28;20153;-76
2022/12/03 06:35:35;;;;;;;0.20;0.20;;;;;;;1.11;100.00;102174.78;4970098;28;20056;-76
2022/12/03 06:38:01;;;;;;;0.20;0.20;;;;;;;1.16;100.00;102181.75;4971057;28;20026;-76
2022/12/03 06:40:26;;;;;;;0.20;0.20;;;;;;;1.20;100.00;102172.84;4983592;28;20041;-76
2022/12/03 06:42:51;;;;;;;0.20;0.20;;;;;;;1.00;100.00;102165.28;4959265;28;20057;-76
2022/12/03 06:45:17;;;;;;;0.20;0.20;;;;;;;1.17;100.00;102175.56;4970887;28;20062;-75
2022/12/03 06:47:42;;;;;;;0.20;0.20;;;;;;;1.04;100.00;102153.75;4984331;28;20040;-75
2022/12/03 06:50:08;;;;;;;0.20;0.20;;;;;;;1.02;100.00;102154.66;4970284;28;20026;-76
2022/12/03 06:52:33;;;;;;;0.20;0.20;;;;;;;1.03;100.00;102152.00;4983578;28;20030;-76
2022/12/03 06:54:59;;;;;;;0.17;0.17;;;;;;;0.97;100.00;102137.97;4976042;28;20038;-76
2022/12/03 06:57:24;;;;;;;0.20;0.20;;;;;;;1.19;100.00;102167.59;4979410;28;20026;-76
2022/12/03 06:59:49;;;;;;;0.20;0.20;;;;;;;1.04;100.00;102158.16;4977116;28;20045;-76
2022/12/03 07:02:15;;;;;;;0.20;0.20;;;;;;;1.11;100.00;102156.25;4980636;28;20496;-76
2022/12/03 07:04:40;;;;;;;0.20;0.20;;;;;;;1.08;100.00;102154.56;4968045;28;20065;-76
2022/12/03 07:07:05;;;;;;;0.20;0.20;;;;;;;1.07;100.00;102160.75;4978805;28;20034;-75
2022/12/03 07:09:31;;;;;;;0.20;0.20;;;;;;;1.12;100.00;102173.88;4979157;28;20029;-76
2022/12/03 07:11:56;;;;;;;0.20;0.20;;;;;;;1.09;100.00;102174.81;4979444;28;20030;-76
2022/12/03 07:14:21;;;;;;;0.20;0.20;;;;;;;0.89;100.00;102125.78;4959259;28;20029;-76
2022/12/03 07:16:47;;;;;;;0.20;0.20;;;;;;;0.82;100.00;102142.63;4978879;28;20140;-76
2022/12/03 07:19:12;;;;;;;0.20;0.20;;;;;;;1.03;100.00;102162.56;4979130;28;20168;-75
2022/12/03 07:21:37;;;;;;;0.20;0.20;;;;;;;0.91;100.00;102146.91;4976944;28;20036;-75
2022/12/03 07:24:03;;;;;;;0.20;0.20;;;;;;;1.00;100.00;102156.44;4967469;28;20058;-75
2022/12/03 07:26:28;;;;;;;0.28;0.28;;;;;;;1.17;100.00;102182.63;4969633;28;20030;-75
2022/12/03 07:28:54;;;;;;;0.20;0.20;;;;;;;1.12;100.00;102158.91;4965643;28;20099;-76
2022/12/03 07:31:19;;;;;;;0.20;0.20;;;;;;;1.01;100.00;102158.19;4967389;28;20400;-77
2022/12/03 07:33:44;;;;;;;0.20;0.20;;;;;;;0.92;100.00;102158.38;4988084;28;20147;-76
2022/12/03 07:36:10;;;;;;;0.28;0.28;;;;;;;0.91;100.00;102159.25;4966709;28;20116;-75
2022/12/03 07:38:35;;;;;;;0.20;0.20;;;;;;;0.96;100.00;102152.09;4978642;28;20022;-76
2022/12/03 07:41:01;;;;;;;0.20;0.20;;;;;;;1.06;100.00;102172.22;4978400;28;20030;-76
2022/12/03 07:43:26;;;;;;;0.20;0.20;;;;;;;1.03;100.00;102169.63;4969600;28;20511;-76
2022/12/03 07:45:51;;;;;;;0.20;0.20;;;;;;;1.06;100.00;102152.84;4965423;28;20540;-76
2022/12/03 07:48:17;;;;;;;0.20;0.20;;;;;;;1.16;100.00;102171.19;4978944;28;20117;-76
2022/12/03 07:50:42;;;;;;;0.20;0.20;;;;;;;1.15;100.00;102174.72;4964208;28;21190;-76
2022/12/03 07:53:07;;;;;;;0.20;0.20;;;;;;;1.07;100.00;102173.97;4963931;28;20052;-76
2022/12/03 07:55:33;;;;;;;0.30;0.30;;;;;;;1.10;100.00;102176.56;4976803;28;20534;-76
2022/12/03 07:57:58;;;;;;;0.20;0.20;;;;;;;1.04;100.00;102163.44;4972076;28;20053;-76
2022/12/03 08:00:23;;;;;;;0.20;0.20;;;;;;;1.06;100.00;102166.06;4968398;28;20041;-76
2022/12/03 08:02:48;;;;;;;0.20;0.20;;;;;;;1.07;100.00;102166.03;4974004;28;20064;-76
2022/12/03 08:05:14;;;;;;;0.25;0.25;;;;;;;0.99;100.00;102160.00;4976767;28;20058;-76
2022/12/03 08:07:39;;;;;;;0.20;0.20;;;;;;;0.97;100.00;102169.72;4976479;28;20033;-76
2022/12/03 08:10:05;;;;;;;0.20;0.20;;;;;;;0.93;100.00;102150.38;4974360;28;20038;-76
2022/12/03 08:12:38;;;;;;;0.20;0.20;;;;;;;0.89;100.00;102183.06;4970836;28;20038;-76
2022/12/03 08:15:15;;;;;;;0.20;0.20;;;;;;;0.83;100.00;102156.72;4961251;28;20306;-76
2022/12/03 08:17:41;;;;;;;0.30;0.30;;;;;;;1.01;100.00;102177.59;4977261;28;20457;-75
2022/12/03 08:20:16;;;;;;;0.20;0.20;;;;;;;0.86;100.00;102175.19;4976235;28;20026;-76
2022/12/03 08:22:43;;;;;;;0.30;0.30;;;;;;;0.89;100.00;102162.81;4971672;28;20166;-75
2022/12/03 08:25:13;;;;;;;0.20;0.20;;;;;;;1.02;100.00;102178.47;4979839;28;20713;-76
2022/12/03 08:27:39;;;;;;;0.22;0.22;;;;;;;0.92;100.00;102158.38;4972385;28;20747;-74
2022/12/03 08:30:13;;;;;;;0.30;0.30;;;;;;;0.98;100.00;102159.13;4975728;28;20038;-75
2022/12/03 08:32:39;;;;;;;;;;;;;;;1.08;100.00;102190.69;4978040;28;20140;-75
2022/12/03 08:35:09;;;;;;;0.25;0.25;;;;;;;0.96;100.00;102157.38;4975326;28;20371;-75
2022/12/03 08:37:35;;;;;;;0.20;0.20;;;;;;;0.99;100.00;102182.03;4993836;28;20413;-76
2022/12/03 08:40:00;;;;;;;0.20;0.20;;;;;;;1.04;100.00;102180.19;4977589;28;20033;-75
2022/12/03 08:42:41;;;;;;;0.20;0.20;;;;;;;1.09;100.00;102181.88;4974143;28;20026;-76
2022/12/03 08:45:38;;;;;;;0.20;0.20;;;;;;;0.89;100.00;102170.75;4978396;28;20033;-75
2022/12/03 08:48:24;;;;;;;0.20;0.20;;;;;;;1.07;100.00;102178.38;4973319;28;20033;-75
2022/12/03 08:50:50;;;;;;;0.20;0.20;;;;;;;0.99;100.00;102181.16;4975380;28;20022;-76
2022/12/03 08:53:27;;;;;;;0.20;0.20;;;;;;;1.10;100.00;102191.56;4961916;28;20040;-75
2022/12/03 08:55:54;;;;;;;0.30;0.30;;;;;;;1.07;100.00;102173.09;4967220;28;20038;-75
2022/12/03 08:58:32;;;;;;;0.30;0.30;;;;;;;1.06;100.00;102188.09;4975571;28;20033;-75
2022/12/03 09:01:04;;;;;;;0.20;0.20;;;;;;;0.93;100.00;102150.38;4970752;28;20045;-76
2022/12/03 09:03:31;;;;;;;0.30;0.30;;;;;;;0.86;100.00;102169.88;4960655;28;20045;-75
2022/12/03 09:05:56;;;;;;;0.20;0.20;;;;;;;1.01;100.00;102167.00;4964837;28;20030;-76
2022/12/03 09:08:21;;;;;;;0.25;0.25;;;;;;;0.87;100.00;102172.53;4957688;28;20041;-76
2022/12/03 09:10:46;;;;;;;0.20;0.20;;;;;;;0.72;100.00;102160.41;4995441;28;20473;-76
2022/12/03 09:13:12;;;;;;;0.30;0.30;;;;;;;0.66;100.00;102149.94;4969270;28;20037;-76
2022/12/03 09:15:37;;;;;;;0.20;0.20;;;;;;;0.81;100.00;102161.16;4970904;28;20429;-75
2022/12/03 09:18:02;;;;;;;0.20;0.20;;;;;;;0.91;100.00;102181.28;4976860;28;20041;-76
2022/12/03 09:20:28;;;;;;;0.20;0.20;;;;;;;0.71;100.00;102145.44;4973651;28;20485;-76
2022/12/03 09:22:53;;;;;;;0.30;0.30;;;;;;;0.83;100.00;102176.13;4977025;28;20048;-76
2022/12/03 09:25:18;;;;;;;0.20;0.20;;;;;;;0.95;100.00;102176.81;4977200;28;20426;-76
2022/12/03 09:27:44;;;;;;;0.30;0.30;;;;;;;0.78;100.00;102163.88;4973352;28;20485;-75
2022/12/03 09:30:09;;;;;;;0.20;0.20;;;;;;;0.71;100.00;102168.34;4992379;28;20469;-76
2022/12/03 09:32:35;;;;;;;0.28;0.28;;;;;;;0.89;100.00;102180.44;4959396;28;20363;-76
2022/12/03 09:35:00;;;;;;;0.20;0.20;;;;;;;0.77;100.00;102160.34;4974613;28;20071;-76
2022/12/03 09:37:25;;;;;;;0.30;0.30;;;;;;;0.69;100.00;102154.28;4973600;28;20030;-75
2022/12/03 09:39:51;;;;;;;0.30;0.30;;;;;;;0.76;100.00;102161.22;4974829;28;20392;-75
2022/12/03 09:42:16;;;;;;;0.20;0.20;;;;;;;0.88;100.00;102181.31;4969120;28;20574;-75
2022/12/03 09:44:42;;;;;;;0.30;0.30;;;;;;;0.70;100.00;102137.53;4973777;28;20425;-75
2022/12/03 09:47:07;;;;;;;0.30;0.30;;;;;;;0.93;100.00;102160.13;4958364;28;20033;-76
2022/12/03 09:49:34;;;;;;;0.20;0.20;;;;;;;0.79;100.00;102162.97;4960500;28;20034;-76
2022/12/03 09:52:01;;;;;;;0.20;0.20;;;;;;;0.81;100.00;102175.25;4971337;28;20026;-76
2022/12/03 09:54:28;;;;;;;0.20;0.20;;;;;;;0.87;100.00;102167.25;4975238;28;20033;-75
2022/12/03 09:56:55;;;;;;;0.20;0.20;;;;;;;0.99;100.00;102167.94;4973427;28;20073;-75
2022/12/03 09:59:22;;;;;;;0.20;0.20;;;;;;;0.87;100.00;102163.72;4969989;28;20036;-76
2022/12/03 10:01:48;;;;;;;0.30;0.30;;;;;;;0.80;100.00;102149.72;4975349;28;20135;-76
2022/12/03 10:04:13;;;;;;;0.20;0.20;;;;;;;0.72;100.00;102146.31;4981977;28;20056;-76
2022/12/03 10:06:38;;;;;;;0.20;0.20;;;;;;;0.55;100.00;102128.06;4977167;28;20057;-76
2022/12/03 10:09:05;;;;;;;0.30;0.30;;;;;;;0.74;100.00;102134.84;4963644;28;20036;-76
2022/12/03 10:11:31;;;;;;;0.20;0.20;;;;;;;0.79;100.00;102155.91;4976242;28;20033;-76
2022/12/03 10:13:57;;;;;;;0.25;0.25;;;;;;;0.76;100.00;102134.78;4973375;28;20606;-76
2022/12/03 10:16:22;;;;;;;0.28;0.28;;;;;;;0.81;100.00;102132.06;4964113;28;20038;-76
2022/12/03 10:18:53;;;;;;;0.30;0.30;;;;;;;0.78;100.00;102140.94;4960890;28;20448;-75
2022/12/03 10:21:24;;;;;;;0.30;0.30;;;;;;;0.89;100.00;102152.22;4981321;28;20503;-75
2022/12/03 10:24:27;;;;;;;0.20;0.20;;;;;;;0.85;100.00;102145.22;4961330;28;20076;-76
2022/12/03 10:27:17;;;;;;;0.30;0.30;;;;;;;1.02;100.00;102146.72;4975250;28;20022;-72
2022/12/03 10:29:53;;;;;;;0.28;0.28;;;;;;;0.77;100.00;102123.31;4978915;28;20806;-76
2022/12/03 10:32:37;;;;;;;0.40;0.40;;;;;;;0.83;100.00;102136.44;4967901;28;20117;-74
2022/12/03 10:35:12;;;;;;;0.30;0.30;;;;;;;1.09;100.00;102143.06;4964055;28;20030;-74
2022/12/03 10:38:05;;;;;;;0.30;0.30;;;;;;;1.01;100.00;102137.91;4982748;28;20148;-74
2022/12/03 10:40:34;;;;;;;0.20;0.20;;;;;;;0.96;100.00;102133.59;4970072;28;20033;-74
2022/12/03 10:43:23;;;;;;;0.20;0.20;;;;;;;0.83;100.00;102131.16;4977363;28;20765;-74
2022/12/03 10:46:02;;;;;;;0.20;0.20;;;;;;;0.84;100.00;102117.03;4978174;28;20034;-74
2022/12/03 10:48:28;;;;;;;0.30;0.30;;;;;;;0.88;100.00;102110.81;4972903;28;20048;-74
2022/12/03 10:51:19;;;;;;;0.30;0.30;;;;;;;0.83;100.00;102120.59;4975808;28;20034;-74
2022/12/03 10:53:46;;;;;;;0.30;0.30;;;;;;;0.92;100.00;102101.03;4982530;28;20109;-74
2022/12/03 10:56:15;;;;;;;0.30;0.30;;;;;;;0.89;100.00;102109.91;4974950;28;20176;-75
2022/12/03 10:58:40;;;;;;;0.20;0.20;;;;;;;0.87;100.00;102085.25;4976464;28;20030;-73
2022/12/03 11:01:14;;;;;;;0.30;0.30;;;;;;;1.01;100.00;102094.72;4972195;28;20074;-75
2022/12/03 11:03:39;;;;;;;0.23;0.23;;;;;;;0.85;100.00;102065.91;4994523;28;20041;-74
2022/12/03 11:06:05;;;;;;;0.30;0.30;;;;;;;1.02;100.00;102065.59;4971825;28;20030;-74
2022/12/03 11:08:33;;;;;;;0.30;0.30;;;;;;;1.11;100.00;102101.59;4972015;28;20029;-74
2022/12/03 11:11:02;;;;;;;0.20;0.20;;;;;;;0.89;100.00;102070.25;4971509;28;20056;-74
2022/12/03 11:13:33;;;;;;;0.20;0.20;;;;;;;1.17;100.00;102087.38;4981938;28;20034;-74
2022/12/03 11:16:00;;;;;;;0.20;0.20;;;;;;;1.08;100.00;102087.53;4994612;28;20029;-74
2022/12/03 11:18:48;;;;;;;0.20;0.20;;;;;;;1.12;100.00;102084.81;4977648;28;20064;-74
2022/12/03 11:21:14;;;;;;;0.20;0.20;;;;;;;0.96;100.00;102052.50;4978561;28;20074;-74
2022/12/03 11:23:45;;;;;;;0.20;0.20;;;;;;;0.99;100.00;102083.28;4988564;28;20034;-74
2022/12/03 11:26:25;;;;;;;0.20;0.20;;;;;;;1.03;100.00;102075.28;4995101;28;20108;-74
2022/12/03 11:28:54;;;;;;;0.20;0.20;;;;;;;0.93;100.00;102071.06;4975102;28;20057;-74
2022/12/03 11:31:43;;;;;;;0.22;0.22;;;;;;;1.08;100.00;102066.38;4971252;28;20421;-74
2022/12/03 11:34:17;;;;;;;0.20;0.20;;;;;;;0.98;100.00;102071.84;4963694;28;20054;-75
2022/12/03 11:37:07;;;;;;;0.20;0.20;;;;;;;1.19;100.00;102069.72;4979678;28;20027;-74
2022/12/03 11:39:48;;;;;;;0.20;0.20;;;;;;;1.22;100.00;102059.06;4992887;28;20520;-75
2022/12/03 11:42:25;;;;;;;0.20;0.20;;;;;;;1.39;100.00;102055.22;4972558;28;20123;-74